Time;durP1;ratioP1;P1;durP2;ratioP2;P2;SDS_P1;SDS_P2;PMS_P1;PMS_P2;Temp;Humidity;BMP_temperature;BMP_pressure;BME280_temperature;BME280_humidity;BME280_pressure;Samples;Min_cycle;Max_cycle;Signal;HPM_P1;HPM_P2
2022/12/12 06:08:54;;;;;;;30.30;12.90;;;-5.50;99.90;;;;;;7622538;19;20770;-72
2022/12/12 06:11:26;;;;;;;21.98;10.02;;;-5.50;99.90;;;;;;7601811;19;22524;-71
2022/12/12 06:13:58;;;;;;;30.35;13.25;;;-5.50;99.90;;;;;;7589706;19;20428;-72
2022/12/12 06:16:30;;;;;;;30.92;13.90;;;-5.40;99.90;;;;;;7582845;19;20022;-72
2022/12/12 06:19:03;;;;;;;28.20;13.00;;;-5.30;99.90;;;;;;7581572;19;20093;-72
2022/12/12 06:21:36;;;;;;;25.90;12.18;;;-5.20;99.90;;;;;;7610209;19;20026;-72
2022/12/12 06:24:09;;;;;;;29.10;13.10;;;-5.10;99.90;;;;;;7600508;19;20089;-72
2022/12/12 06:26:41;;;;;;;26.63;12.18;;;-5.10;99.90;;;;;;7621711;19;20569;-70
2022/12/12 06:29:13;;;;;;;27.67;13.60;;;-4.90;99.90;;;;;;7619914;19;20044;-72
2022/12/12 06:31:46;;;;;;;26.75;12.32;;;-4.90;99.90;;;;;;7597728;19;21101;-70
2022/12/12 06:34:18;;;;;;;27.53;12.53;;;-4.80;99.90;;;;;;7583845;19;20014;-70
2022/12/12 06:36:50;;;;;;;31.43;12.87;;;-4.80;99.90;;;;;;7605665;19;20018;-70
2022/12/12 06:39:22;;;;;;;27.50;12.85;;;-4.70;99.90;;;;;;7607545;19;20656;-70
2022/12/12 06:41:55;;;;;;;26.40;13.35;;;-4.70;99.90;;;;;;7604939;19;20864;-70
2022/12/12 06:44:27;;;;;;;24.45;12.27;;;-4.70;99.90;;;;;;7592267;19;20098;-69
2022/12/12 06:46:59;;;;;;;25.70;13.23;;;-4.60;99.90;;;;;;7603214;19;20020;-70
2022/12/12 06:49:31;;;;;;;22.80;11.50;;;-4.60;99.90;;;;;;7632689;19;20014;-70
2022/12/12 06:52:04;;;;;;;24.73;11.75;;;-4.50;99.90;;;;;;7644726;19;20063;-70
2022/12/12 06:54:36;;;;;;;21.73;9.82;;;-4.40;99.90;;;;;;7636462;19;21368;-70
2022/12/12 06:57:08;;;;;;;21.88;9.88;;;-4.40;99.90;;;;;;7640217;19;20022;-70
2022/12/12 06:59:40;;;;;;;24.50;11.60;;;-4.30;99.90;;;;;;7642105;19;20048;-71
2022/12/12 07:02:12;;;;;;;24.38;11.27;;;-4.30;99.90;;;;;;7635031;19;20026;-72
2022/12/12 07:04:44;;;;;;;24.52;11.60;;;-4.30;99.90;;;;;;7640698;19;20060;-71
2022/12/12 07:07:16;;;;;;;29.25;13.13;;;-4.30;99.90;;;;;;7630909;19;20021;-72
2022/12/12 07:09:48;;;;;;;23.17;9.80;;;-4.30;99.90;;;;;;7637088;19;21124;-71
2022/12/12 07:12:20;;;;;;;21.80;9.35;;;-4.20;99.90;;;;;;7633446;19;20025;-71
2022/12/12 07:14:53;;;;;;;25.55;12.45;;;-4.30;99.90;;;;;;7634311;19;20019;-69
2022/12/12 07:17:25;;;;;;;27.20;12.68;;;-4.30;99.90;;;;;;7626481;19;20034;-71
2022/12/12 07:19:57;;;;;;;26.40;11.98;;;-4.30;99.90;;;;;;7608330;19;20022;-71
2022/12/12 07:22:29;;;;;;;29.00;12.25;;;-4.30;99.90;;;;;;7604498;19;20015;-71
2022/12/12 07:25:02;;;;;;;14.33;7.33;;;-4.20;99.90;;;;;;7608869;19;20026;-71
2022/12/12 07:27:35;;;;;;;23.60;10.20;;;-4.10;99.90;;;;;;7603313;19;20286;-71
2022/12/12 07:30:07;;;;;;;23.15;10.38;;;-4.20;99.90;;;;;;7602958;19;20023;-69
2022/12/12 07:32:40;;;;;;;23.77;11.02;;;-4.20;99.90;;;;;;7602019;19;20011;-71
2022/12/12 07:35:12;;;;;;;24.48;11.85;;;-4.20;99.90;;;;;;7611890;19;20022;-71
2022/12/12 07:37:46;;;;;;;26.27;12.90;;;-4.30;99.90;;;;;;7598557;19;20636;-72
2022/12/12 07:40:18;;;;;;;25.30;11.13;;;-4.40;99.90;;;;;;7608905;19;20019;-71
2022/12/12 07:42:50;;;;;;;25.30;11.65;;;-4.30;99.90;;;;;;7595455;19;20278;-71
2022/12/12 07:45:22;;;;;;;25.20;11.90;;;-4.40;99.90;;;;;;7603877;19;20537;-71
2022/12/12 07:47:55;;;;;;;24.85;11.95;;;-4.50;99.90;;;;;;7595611;19;20014;-71
2022/12/12 07:50:27;;;;;;;25.80;11.60;;;-4.50;99.90;;;;;;7603887;19;20919;-70
2022/12/12 07:53:00;;;;;;;22.52;8.88;;;-4.60;99.90;;;;;;7603814;19;20605;-71
2022/12/12 07:55:32;;;;;;;16.25;6.78;;;-4.50;99.90;;;;;;7608278;19;20101;-71
2022/12/12 07:58:05;;;;;;;18.60;9.38;;;-4.40;99.90;;;;;;7592235;19;20022;-72
2022/12/12 08:00:37;;;;;;;24.33;9.85;;;-4.40;99.90;;;;;;7604287;19;20098;-69
2022/12/12 08:03:09;;;;;;;10.60;5.95;;;-4.50;99.90;;;;;;7602511;19;20014;-72
2022/12/12 08:05:42;;;;;;;18.30;9.30;;;-4.50;99.90;;;;;;7605228;19;20027;-71
2022/12/12 08:08:14;;;;;;;21.80;9.65;;;-4.50;99.90;;;;;;7607055;19;21006;-71
2022/12/12 08:10:46;;;;;;;18.52;7.43;;;-4.50;99.90;;;;;;7604966;19;20023;-71
2022/12/12 08:13:18;;;;;;;17.38;9.07;;;-4.50;99.90;;;;;;7602173;19;20014;-71
2022/12/12 08:15:50;;;;;;;13.00;6.32;;;-4.50;99.90;;;;;;7609326;19;20090;-72
2022/12/12 08:18:22;;;;;;;19.52;8.80;;;-4.40;99.90;;;;;;7604329;19;20505;-71
2022/12/12 08:20:54;;;;;;;22.52;9.95;;;-4.40;99.90;;;;;;7600334;19;20029;-71
2022/12/12 08:23:27;;;;;;;21.50;10.98;;;-4.50;99.90;;;;;;7606946;19;20059;-69
2022/12/12 08:26:04;;;;;;;18.02;9.05;;;-4.50;99.90;;;;;;7604836;19;20018;-69
2022/12/12 08:28:37;;;;;;;20.75;8.23;;;-4.30;99.90;;;;;;7599641;19;20030;-71
2022/12/12 08:31:10;;;;;;;11.57;5.10;;;-4.40;99.90;;;;;;7600298;19;20027;-69
2022/12/12 08:33:42;;;;;;;18.23;8.80;;;-4.40;99.90;;;;;;7599755;19;20085;-69
2022/12/12 08:36:16;;;;;;;10.07;3.95;;;-4.40;99.90;;;;;;7604013;19;20042;-69
2022/12/12 08:38:49;;;;;;;20.42;9.65;;;-4.50;99.90;;;;;;7604071;19;20030;-70
2022/12/12 08:41:22;;;;;;;29.27;13.35;;;-4.50;99.90;;;;;;7605823;19;20011;-70
2022/12/12 08:43:54;;;;;;;17.30;8.27;;;-4.60;99.90;;;;;;7587374;19;20708;-72
2022/12/12 08:46:26;;;;;;;16.98;9.30;;;-4.50;99.90;;;;;;7600303;19;20022;-72
2022/12/12 08:48:58;;;;;;;19.15;8.65;;;-4.40;99.90;;;;;;7600129;19;20060;-72
2022/12/12 15:37:34;;;;;;;25.42;9.45;;;-3.90;99.90;;;;;;7611171;19;20807;-71
2022/12/12 15:40:09;;;;;;;23.77;9.77;;;-4.00;99.90;;;;;;7563857;19;25751;-71
2022/12/12 15:42:46;;;;;;;22.80;10.45;;;-4.00;99.90;;;;;;7627356;19;20018;-70
2022/12/12 15:45:50;;;;;;;27.55;11.57;;;-4.00;99.90;;;;;;7622487;19;20026;-70
2022/12/12 15:48:24;;;;;;;30.50;10.85;;;-4.00;99.90;;;;;;7612126;19;22114;-69
2022/12/12 15:50:58;;;;;;;22.17;10.57;;;-3.90;99.90;;;;;;7609089;19;20018;-69
2022/12/12 15:53:50;;;;;;;27.98;11.85;;;-3.90;99.90;;;;;;7622097;19;20033;-69
2022/12/12 15:56:26;;;;;;;29.23;11.68;;;-3.90;99.90;;;;;;7623386;19;20498;-70
2022/12/12 15:59:07;;;;;;;28.80;12.52;;;-3.90;99.90;;;;;;7595897;19;20109;-71
2022/12/12 16:01:39;;;;;;;22.83;12.20;;;-3.90;99.90;;;;;;7585117;19;20809;-70
2022/12/12 16:04:11;;;;;;;26.70;12.73;;;-3.90;99.90;;;;;;7576417;19;20018;-70
2022/12/12 16:06:45;;;;;;;28.85;14.13;;;-3.90;99.90;;;;;;7570021;19;20014;-69
2022/12/12 16:09:25;;;;;;;25.23;13.48;;;-3.90;99.90;;;;;;7570369;19;22053;-69
2022/12/12 16:11:58;;;;;;;24.02;11.13;;;-3.90;99.90;;;;;;7597360;19;20014;-68
2022/12/12 16:14:35;;;;;;;29.98;13.70;;;-3.90;99.90;;;;;;7598944;19;20085;-69
2022/12/12 16:54:15;;;;;;;41.30;18.92;;;-5.00;99.90;;;;;;7610719;19;20462;-69
2022/12/12 16:56:51;;;;;;;51.92;25.25;;;-5.10;99.90;;;;;;7639028;19;20045;-70
2022/12/12 16:59:23;;;;;;;72.68;29.58;;;-5.10;99.90;;;;;;7642417;19;20654;-71
2022/12/12 17:01:56;;;;;;;65.73;29.10;;;-5.20;99.90;;;;;;7637324;19;20037;-69
2022/12/12 17:04:29;;;;;;;64.10;28.48;;;-5.20;99.90;;;;;;7614474;19;20022;-69
2022/12/12 17:07:02;;;;;;;61.65;27.13;;;-5.10;99.90;;;;;;7616326;19;20014;-69
2022/12/12 17:09:34;;;;;;;54.22;23.15;;;-5.10;99.90;;;;;;7630806;19;20014;-68
2022/12/12 17:12:08;;;;;;;52.05;22.10;;;-5.10;99.90;;;;;;7603814;19;20014;-68
2022/12/12 17:14:40;;;;;;;45.72;21.25;;;-5.10;99.90;;;;;;7644438;19;20026;-70
2022/12/12 17:17:12;;;;;;;37.25;19.88;;;-5.10;99.90;;;;;;7625695;19;20635;-70
2022/12/12 17:19:45;;;;;;;44.83;22.52;;;-5.10;99.90;;;;;;7627809;19;20057;-70
2022/12/12 17:22:17;;;;;;;54.00;21.88;;;-5.10;99.90;;;;;;7638454;19;20022;-70
2022/12/12 17:24:49;;;;;;;59.97;22.77;;;-5.10;99.90;;;;;;7644038;19;20692;-70
2022/12/12 17:27:21;;;;;;;56.90;25.00;;;-5.10;99.90;;;;;;7638318;19;20018;-70
2022/12/12 17:29:53;;;;;;;67.30;28.80;;;-5.10;99.90;;;;;;7643668;19;20369;-71
2022/12/12 17:32:28;;;;;;;71.63;27.60;;;-5.10;99.90;;;;;;7632515;19;20018;-70
2022/12/12 17:35:00;;;;;;;97.30;49.33;;;-5.10;99.90;;;;;;7644236;19;20022;-68
2022/12/12 17:37:33;;;;;;;114.63;58.20;;;-5.10;99.90;;;;;;7635819;19;20023;-68
2022/12/12 17:40:08;;;;;;;84.88;40.63;;;-5.00;99.90;;;;;;7643181;19;20018;-69
2022/12/12 17:42:40;;;;;;;104.28;50.08;;;-4.90;99.90;;;;;;7640075;19;21350;-68
2022/12/12 17:45:12;;;;;;;76.00;36.83;;;-5.00;99.90;;;;;;7639853;19;20024;-68
2022/12/12 17:47:44;;;;;;;67.07;31.08;;;-5.00;99.90;;;;;;7637591;19;20025;-69
2022/12/12 17:50:18;;;;;;;59.20;29.37;;;-5.10;99.90;;;;;;7639154;19;20022;-69
2022/12/12 17:52:50;;;;;;;58.05;26.55;;;-5.10;99.90;;;;;;7639164;19;20026;-70
2022/12/12 17:55:22;;;;;;;48.15;22.35;;;-5.10;99.90;;;;;;7640459;19;21272;-70
2022/12/12 17:58:14;;;;;;;42.63;19.83;;;-5.20;99.90;;;;;;7639213;19;20489;-70
2022/12/12 18:00:47;;;;;;;38.40;18.90;;;-5.20;99.90;;;;;;7638866;19;20049;-70
2022/12/12 18:03:19;;;;;;;51.40;21.20;;;-5.20;99.90;;;;;;7637870;19;20429;-70
2022/12/12 18:05:51;;;;;;;43.42;20.48;;;-5.20;99.90;;;;;;7609082;19;20022;-70
2022/12/12 18:08:23;;;;;;;48.00;21.77;;;-5.10;99.90;;;;;;7608836;19;20010;-70
2022/12/12 18:10:56;;;;;;;44.58;21.77;;;-5.10;99.90;;;;;;7591237;19;20149;-70
2022/12/12 18:13:28;;;;;;;43.80;20.63;;;-5.20;99.90;;;;;;7605589;19;20014;-69
2022/12/12 18:16:01;;;;;;;41.03;18.90;;;-5.30;99.90;;;;;;7563068;19;20022;-70
2022/12/12 18:18:34;;;;;;;30.27;14.25;;;-5.30;99.90;;;;;;7567954;19;20029;-69
2022/12/12 18:21:15;;;;;;;31.17;16.15;;;-5.40;99.90;;;;;;7583231;19;20019;-70
2022/12/12 18:24:07;;;;;;;34.22;15.82;;;-5.40;99.90;;;;;;7581239;19;20359;-68
2022/12/12 18:26:40;;;;;;;31.03;15.90;;;-5.50;99.90;;;;;;7584761;19;20053;-68
2022/12/12 18:29:12;;;;;;;62.78;25.65;;;-5.50;99.90;;;;;;7577452;19;20524;-70
2022/12/12 18:31:44;;;;;;;63.88;30.67;;;-5.40;99.90;;;;;;7580471;19;20029;-68
2022/12/12 18:34:17;;;;;;;74.50;32.45;;;-5.30;99.90;;;;;;7578224;19;20063;-68
2022/12/12 18:36:49;;;;;;;65.93;27.00;;;-5.30;99.90;;;;;;7590062;19;20022;-68
2022/12/12 18:39:21;;;;;;;60.78;27.70;;;-5.30;99.90;;;;;;7578312;19;20105;-67
2022/12/12 18:41:53;;;;;;;59.87;28.53;;;-5.40;99.90;;;;;;7591180;19;20483;-67
2022/12/12 18:44:27;;;;;;;;;;;-5.40;99.90;;;;;;7579451;19;20034;-68
2022/12/12 18:46:59;;;;;;;59.25;25.90;;;-5.40;99.90;;;;;;7595541;19;19949;-68
2022/12/12 18:49:31;;;;;;;50.50;22.00;;;-5.50;99.90;;;;;;7586916;19;20596;-68
